createdAt,value
2022-10-13T00:01:38.661Z,41.05
2022-10-13T00:04:05.023Z,26.27
2022-10-13T00:06:31.748Z,27.60
2022-10-13T00:08:58.693Z,24.52
2022-10-13T00:11:26.426Z,24.60
2022-10-13T00:13:55.340Z,30.38
2022-10-13T00:16:21.962Z,30.58
2022-10-13T00:18:48.782Z,29.38
2022-10-13T00:21:16.634Z,32.40
2022-10-13T00:23:43.818Z,34.45
2022-10-13T00:26:11.254Z,31.17
2022-10-13T00:28:37.728Z,29.40
2022-10-13T00:31:04.577Z,30.10
2022-10-13T00:33:30.868Z,25.38
2022-10-13T00:35:57.117Z,27.75
2022-10-13T00:38:23.494Z,27.52
2022-10-13T00:40:54.698Z,29.60
2022-10-13T00:43:22.338Z,30.63
2022-10-13T00:45:52.233Z,32.10
2022-10-13T00:48:26.439Z,29.00
2022-10-13T00:50:52.964Z,32.15
2022-10-13T00:53:21.050Z,29.70
2022-10-13T00:55:47.572Z,32.00
2022-10-13T00:58:16.170Z,35.60
2022-10-13T01:00:44.896Z,29.45
2022-10-13T01:03:13.938Z,32.10
2022-10-13T01:05:40.770Z,32.03
2022-10-13T01:08:07.610Z,33.42
2022-10-13T01:10:41.105Z,30.58
2022-10-13T01:13:11.869Z,37.85
2022-10-13T01:15:45.652Z,38.13
2022-10-13T01:18:30.695Z,32.95
2022-10-13T01:21:17.579Z,33.17
2022-10-13T01:23:46.997Z,35.85
2022-10-13T01:26:40.564Z,41.03
2022-10-13T01:29:25.685Z,34.22
2022-10-13T01:32:14.689Z,36.47
2022-10-13T01:34:49.244Z,34.67
2022-10-13T01:37:29.514Z,34.10
2022-10-13T01:40:10.235Z,34.92
2022-10-13T01:42:45.665Z,33.33
2022-10-13T01:45:15.108Z,37.22
2022-10-13T01:47:42.169Z,34.30
2022-10-13T01:50:08.776Z,36.80
2022-10-13T01:52:38.273Z,34.20
2022-10-13T01:55:05.917Z,30.00
2022-10-13T01:57:42.665Z,33.15
2022-10-13T02:00:13.545Z,31.17
2022-10-13T02:02:43.366Z,32.28
2022-10-13T02:05:28.052Z,32.40
2022-10-13T02:07:59.101Z,31.40
2022-10-13T02:10:44.674Z,29.92
2022-10-13T02:13:14.014Z,31.85
2022-10-13T02:15:43.466Z,35.40
2022-10-13T02:18:12.833Z,31.27
2022-10-13T02:20:40.612Z,29.45
2022-10-13T02:23:09.062Z,27.67
2022-10-13T02:25:35.831Z,34.00
2022-10-13T02:28:02.273Z,29.52
2022-10-13T02:30:33.057Z,24.38
2022-10-13T02:33:00.404Z,27.38
2022-10-13T02:35:26.774Z,31.75
2022-10-13T02:37:53.104Z,26.00
2022-10-13T02:40:19.638Z,25.40
2022-10-13T02:42:45.962Z,30.40
2022-10-13T02:45:12.473Z,24.98
2022-10-13T02:47:38.854Z,28.70
2022-10-13T02:50:05.442Z,30.75
2022-10-13T02:52:31.719Z,29.00
2022-10-13T02:54:58.105Z,30.20
2022-10-13T02:57:24.558Z,31.33
2022-10-13T02:59:52.006Z,29.52
2022-10-13T03:02:19.049Z,29.15
2022-10-13T03:04:45.592Z,27.27
2022-10-13T03:07:11.886Z,28.50
2022-10-13T03:09:38.202Z,29.25
2022-10-13T03:12:04.960Z,29.73
2022-10-13T03:14:31.294Z,24.52
2022-10-13T03:16:57.642Z,27.73
2022-10-13T03:19:23.949Z,27.17
2022-10-13T03:21:50.238Z,30.08
2022-10-13T03:24:16.525Z,32.53
2022-10-13T03:26:42.823Z,27.33
2022-10-13T03:29:14.951Z,26.23
2022-10-13T03:31:41.670Z,31.00
2022-10-13T03:34:09.034Z,28.25
2022-10-13T03:36:35.352Z,27.90
2022-10-13T03:39:01.721Z,25.17
2022-10-13T03:41:28.071Z,28.27
2022-10-13T03:43:54.406Z,26.67
2022-10-13T03:46:20.679Z,22.02
2022-10-13T03:48:48.153Z,27.02
2022-10-13T03:51:15.869Z,28.38
2022-10-13T03:53:44.875Z,27.45
2022-10-13T03:56:15.373Z,26.95
2022-10-13T03:58:54.636Z,30.52
2022-10-13T04:01:22.368Z,27.38
2022-10-13T04:03:49.306Z,27.27
2022-10-13T04:06:15.589Z,26.15
2022-10-13T04:08:41.860Z,31.73
2022-10-13T04:11:10.523Z,33.65
2022-10-13T04:13:39.656Z,36.50
2022-10-13T04:16:07.292Z,34.15
2022-10-13T04:18:33.997Z,28.98
2022-10-13T04:21:00.752Z,29.02
2022-10-13T04:23:27.052Z,31.25
2022-10-13T04:25:53.341Z,27.35
2022-10-13T04:28:19.658Z,32.50
2022-10-13T04:30:49.420Z,26.15
2022-10-13T04:33:16.095Z,25.98
2022-10-13T04:35:42.369Z,28.23
2022-10-13T04:38:08.999Z,33.72
2022-10-13T04:40:35.857Z,40.90
2022-10-13T04:43:02.589Z,39.13
2022-10-13T04:45:28.917Z,42.42
2022-10-13T04:47:55.193Z,39.08
2022-10-13T04:50:21.526Z,32.00
2022-10-13T04:52:58.269Z,28.45
2022-10-13T04:55:24.673Z,30.98
2022-10-13T04:57:50.953Z,32.75
2022-10-13T05:00:17.342Z,29.80
2022-10-13T05:02:43.645Z,31.27
2022-10-13T05:05:10.385Z,35.50
2022-10-13T05:07:36.660Z,37.10
2022-10-13T05:10:02.972Z,32.50
2022-10-13T05:12:29.253Z,34.20
2022-10-13T05:14:55.561Z,32.35
2022-10-13T05:17:21.830Z,34.28
2022-10-13T05:19:48.801Z,33.60
2022-10-13T05:22:15.086Z,32.38
2022-10-13T05:24:41.365Z,32.75
2022-10-13T05:27:12.140Z,32.40
2022-10-13T05:29:38.601Z,35.10
2022-10-13T05:32:05.550Z,35.92
2022-10-13T05:34:32.607Z,38.15
2022-10-13T05:36:59.392Z,44.95
2022-10-13T05:39:25.763Z,46.15
2022-10-13T05:41:52.170Z,45.88
2022-10-13T05:44:21.624Z,87.63
2022-10-13T05:46:54.765Z,136.68
2022-10-13T05:49:21.109Z,232.32
2022-10-13T05:51:48.691Z,295.55
2022-10-13T05:54:24.198Z,278.08
2022-10-13T05:56:57.237Z,272.08
2022-10-13T05:59:27.331Z,240.90
2022-10-13T06:01:54.282Z,221.20
2022-10-13T06:04:26.680Z,202.98
2022-10-13T06:06:52.952Z,272.75
2022-10-13T06:09:19.477Z,159.13
2022-10-13T06:11:46.156Z,95.95
2022-10-13T06:14:12.492Z,114.72
2022-10-13T06:16:38.780Z,170.00
2022-10-13T06:19:05.370Z,127.47
2022-10-13T06:21:33.715Z,94.13
2022-10-13T06:24:01.186Z,92.45
2022-10-13T06:26:27.463Z,97.80
2022-10-13T06:28:58.514Z,183.63
2022-10-13T06:31:25.727Z,157.30
2022-10-13T06:33:51.995Z,118.43
2022-10-13T06:36:18.319Z,141.25
2022-10-13T06:38:44.599Z,197.90
2022-10-13T06:41:12.530Z,182.57
2022-10-13T06:43:40.310Z,172.00
2022-10-13T06:46:09.612Z,59.00
2022-10-13T06:48:35.937Z,136.57
2022-10-13T06:51:03.398Z,178.13
2022-10-13T06:53:29.724Z,138.63
2022-10-13T06:55:56.862Z,73.18
2022-10-13T06:58:23.158Z,96.65
2022-10-13T07:00:49.536Z,118.63
2022-10-13T07:03:15.859Z,150.75
2022-10-13T07:05:42.105Z,104.13
2022-10-13T07:08:08.438Z,98.22
2022-10-13T07:10:37.038Z,61.10
2022-10-13T07:13:03.320Z,62.92
2022-10-13T07:15:30.490Z,47.35
2022-10-13T07:17:56.901Z,57.60
2022-10-13T07:20:24.008Z,50.95
2022-10-13T07:22:54.241Z,45.50
2022-10-13T07:25:21.504Z,41.35
2022-10-13T07:27:47.769Z,39.80
2022-10-13T07:30:14.070Z,35.22
2022-10-13T07:32:41.980Z,34.35
2022-10-13T07:35:09.838Z,36.08
2022-10-13T07:37:36.391Z,33.17
2022-10-13T07:40:03.685Z,35.67
2022-10-13T07:42:30.643Z,33.15
2022-10-13T07:44:57.002Z,31.52
2022-10-13T07:47:25.452Z,30.70
2022-10-13T07:49:51.808Z,39.80
2022-10-13T07:52:18.577Z,34.10
2022-10-13T07:54:45.203Z,34.53
2022-10-13T07:57:11.568Z,32.70
2022-10-13T07:59:37.917Z,26.60
2022-10-13T08:02:04.278Z,32.38
2022-10-13T08:04:31.108Z,31.17
2022-10-13T08:06:57.503Z,29.00
2022-10-13T08:09:24.248Z,30.83
2022-10-13T08:11:50.898Z,36.85
2022-10-13T08:14:17.225Z,37.97
2022-10-13T08:16:48.590Z,34.10
2022-10-13T08:21:58.327Z,39.35
2022-10-13T08:24:26.137Z,43.53
2022-10-13T08:26:52.470Z,39.63
2022-10-13T08:29:23.542Z,41.35
2022-10-13T08:31:51.770Z,36.83
2022-10-13T08:34:18.383Z,36.35
2022-10-13T08:36:44.737Z,33.95
2022-10-13T08:39:11.024Z,37.72
2022-10-13T08:41:38.925Z,31.88
2022-10-13T08:44:59.293Z,34.92
2022-10-13T08:46:59.524Z,33.88
2022-10-13T08:49:25.941Z,31.45
2022-10-13T08:51:53.894Z,34.20
2022-10-13T08:54:21.490Z,36.28
2022-10-13T08:56:50.875Z,35.17
2022-10-13T08:59:18.256Z,33.50
2022-10-13T09:01:49.033Z,29.13
2022-10-13T09:04:28.184Z,42.28
2022-10-13T09:07:11.758Z,34.92
2022-10-13T09:09:38.424Z,37.50
2022-10-13T09:12:05.722Z,37.30
2022-10-13T09:14:34.097Z,32.22
2022-10-13T09:17:18.546Z,41.35
2022-10-13T09:19:46.191Z,35.33
2022-10-13T09:22:23.577Z,36.60
2022-10-13T09:25:04.242Z,34.50
2022-10-13T09:27:41.278Z,33.60
2022-10-13T09:30:27.968Z,32.70
2022-10-13T09:33:15.836Z,31.17
2022-10-13T09:35:43.725Z,32.97
2022-10-13T09:38:20.469Z,35.95
2022-10-13T09:41:01.617Z,35.70
2022-10-13T09:43:31.901Z,36.67
2022-10-13T09:45:59.277Z,31.10
2022-10-13T09:48:27.441Z,30.45
2022-10-13T09:50:55.236Z,36.28
2022-10-13T09:53:32.449Z,35.70
2022-10-13T09:56:07.965Z,31.10
2022-10-13T09:58:36.971Z,43.53
2022-10-13T10:01:03.346Z,35.20
2022-10-13T10:03:33.364Z,44.40
2022-10-13T10:06:01.183Z,42.75
2022-10-13T10:09:04.657Z,43.88
2022-10-13T10:11:34.200Z,43.90
2022-10-13T10:14:02.407Z,42.05
2022-10-13T10:16:36.739Z,41.15
2022-10-13T10:19:07.288Z,40.28
2022-10-13T10:21:37.293Z,44.30
2022-10-13T10:24:22.997Z,40.75
2022-10-13T10:26:58.610Z,42.45
2022-10-13T10:29:33.914Z,47.13
2022-10-13T10:32:03.168Z,46.78
2022-10-13T10:34:37.936Z,41.53
2022-10-13T10:37:25.313Z,44.08
2022-10-13T10:40:01.586Z,40.67
2022-10-13T10:42:51.976Z,41.95
2022-10-13T10:45:21.698Z,42.40
2022-10-13T10:47:51.316Z,47.50
2022-10-13T10:50:20.320Z,36.70
2022-10-13T10:52:52.802Z,42.28
2022-10-13T10:55:19.249Z,40.80
2022-10-13T10:58:02.062Z,39.80
2022-10-13T11:03:02.763Z,34.63
2022-10-13T11:05:58.632Z,33.90
2022-10-13T11:08:26.266Z,36.67
2022-10-13T11:11:12.525Z,34.15
2022-10-13T11:13:50.253Z,28.17
2022-10-13T11:16:38.731Z,26.98
2022-10-13T11:19:32.108Z,31.05
2022-10-13T11:21:58.358Z,31.50
2022-10-13T11:24:33.689Z,32.35
2022-10-13T11:27:09.216Z,30.27
2022-10-13T11:29:45.556Z,27.13
2022-10-13T11:32:36.121Z,26.25
2022-10-13T11:35:05.889Z,35.17
2022-10-13T11:37:40.757Z,30.48
2022-10-13T11:40:26.066Z,37.25
2022-10-13T11:43:08.266Z,36.30
2022-10-13T11:45:47.129Z,31.60
2022-10-13T11:48:33.658Z,29.95
2022-10-13T11:51:29.497Z,30.05
2022-10-13T11:54:04.112Z,23.83
2022-10-13T11:56:48.342Z,37.17
2022-10-13T11:59:19.901Z,36.33
2022-10-13T12:01:46.275Z,44.03
2022-10-13T12:04:15.177Z,25.33
2022-10-13T12:06:42.137Z,32.35
2022-10-13T12:09:18.346Z,29.55
2022-10-13T12:11:45.090Z,25.08
2022-10-13T12:14:21.661Z,21.27
2022-10-13T12:19:22.392Z,21.70
2022-10-13T12:21:50.188Z,21.92
2022-10-13T12:24:16.473Z,24.58
2022-10-13T12:26:42.992Z,27.13
2022-10-13T12:29:14.504Z,24.83
2022-10-13T12:31:42.558Z,30.60
2022-10-13T12:34:21.097Z,30.50
2022-10-13T12:36:58.585Z,26.55
2022-10-13T12:39:25.635Z,24.23
2022-10-13T12:41:52.981Z,28.25
2022-10-13T12:44:26.960Z,23.83
2022-10-13T12:46:56.008Z,25.70
2022-10-13T12:49:29.511Z,31.27
2022-10-13T12:52:05.973Z,32.58
2022-10-13T12:54:37.232Z,30.52
2022-10-13T12:57:26.483Z,33.35
2022-10-13T12:59:53.037Z,24.25
2022-10-13T13:02:22.062Z,29.35
2022-10-13T13:04:48.593Z,30.85
2022-10-13T13:07:29.272Z,29.63
2022-10-13T13:10:07.889Z,25.42
2022-10-13T13:12:37.700Z,28.05
2022-10-13T13:15:25.254Z,27.55
2022-10-13T13:17:58.169Z,28.42
2022-10-13T13:20:29.830Z,30.40
2022-10-13T13:22:56.191Z,29.88
2022-10-13T13:25:22.962Z,25.27
2022-10-13T13:27:49.857Z,27.95
2022-10-13T13:30:17.730Z,26.30
2022-10-13T13:32:44.151Z,27.48
2022-10-13T13:35:11.642Z,29.75
2022-10-13T13:37:39.182Z,27.58
2022-10-13T13:40:06.262Z,26.05
2022-10-13T13:42:32.693Z,26.10
2022-10-13T13:44:59.040Z,31.33
2022-10-13T13:47:26.817Z,34.38
2022-10-13T13:49:53.742Z,31.88
2022-10-13T13:52:21.706Z,34.47
2022-10-13T13:54:48.457Z,32.80
2022-10-13T13:57:15.014Z,36.00
2022-10-13T13:59:41.796Z,35.42
2022-10-13T14:02:12.823Z,32.70
2022-10-13T14:04:39.198Z,35.13
2022-10-13T14:07:05.498Z,33.58
2022-10-13T14:09:31.749Z,30.23
2022-10-13T14:11:58.764Z,27.00
2022-10-13T14:14:25.161Z,28.23
2022-10-13T14:16:51.438Z,33.28
2022-10-13T14:19:17.767Z,30.10
2022-10-13T14:21:45.819Z,37.35
2022-10-13T14:24:17.227Z,34.97
2022-10-13T14:26:43.537Z,33.10
2022-10-13T14:29:09.945Z,30.55
2022-10-13T14:31:36.227Z,37.50
2022-10-13T14:34:02.533Z,36.08
2022-10-13T14:36:30.792Z,33.63
2022-10-13T14:38:57.119Z,35.97
2022-10-13T14:41:23.918Z,34.35
2022-10-13T14:43:54.501Z,35.45
2022-10-13T14:46:20.921Z,34.63
2022-10-13T14:48:47.173Z,30.73
2022-10-13T14:51:14.569Z,35.58
2022-10-13T14:53:41.988Z,35.85
2022-10-13T14:56:24.932Z,37.15
2022-10-13T14:58:52.660Z,42.65
2022-10-13T15:01:19.367Z,34.78
2022-10-13T15:03:45.785Z,38.70
2022-10-13T15:06:19.401Z,39.65
2022-10-13T15:08:46.113Z,38.90
2022-10-13T15:11:12.728Z,37.08
2022-10-13T15:13:39.217Z,36.08
2022-10-13T15:16:06.391Z,38.67
2022-10-13T15:18:33.557Z,37.67
2022-10-13T15:20:59.824Z,43.95
2022-10-13T15:23:27.237Z,36.60
2022-10-13T15:25:57.853Z,38.08
2022-10-13T15:28:25.062Z,34.42
2022-10-13T15:30:51.431Z,41.65
2022-10-13T15:33:20.957Z,38.70
2022-10-13T15:35:48.073Z,36.42
2022-10-13T15:38:14.813Z,41.47
2022-10-13T15:40:41.599Z,38.67
2022-10-13T15:43:08.259Z,43.72
2022-10-13T15:45:35.901Z,40.78
2022-10-13T15:48:02.726Z,36.92
2022-10-13T15:50:29.100Z,34.42
2022-10-13T15:52:55.553Z,35.30
2022-10-13T15:55:21.998Z,38.92
2022-10-13T15:57:48.352Z,38.45
2022-10-13T16:00:15.112Z,36.97
2022-10-13T16:02:42.244Z,34.25
2022-10-13T16:05:09.740Z,40.67
2022-10-13T16:07:36.089Z,37.67
2022-10-13T16:10:02.559Z,35.90
2022-10-13T16:12:29.193Z,34.80
2022-10-13T16:14:55.483Z,37.28
2022-10-13T16:17:21.788Z,37.25
2022-10-13T16:19:48.143Z,33.70
2022-10-13T16:22:14.625Z,35.92
2022-10-13T16:24:40.993Z,40.17
2022-10-13T16:27:08.427Z,36.92
2022-10-13T16:29:35.736Z,39.83
2022-10-13T16:32:02.292Z,37.20
2022-10-13T16:34:28.841Z,38.47
2022-10-13T16:36:56.164Z,46.67
2022-10-13T16:39:24.317Z,44.80
2022-10-13T16:41:51.371Z,45.78
2022-10-13T16:44:17.810Z,48.30
2022-10-13T16:46:44.334Z,44.75
2022-10-13T16:49:11.169Z,55.22
2022-10-13T16:51:37.486Z,56.78
2022-10-13T16:54:04.551Z,49.90
2022-10-13T16:56:31.346Z,48.45
2022-10-13T16:58:59.164Z,52.92
2022-10-13T17:01:26.206Z,53.15
2022-10-13T17:03:52.950Z,49.35
2022-10-13T17:06:20.729Z,55.25
2022-10-13T17:08:54.032Z,53.08
2022-10-13T17:11:21.836Z,57.80
2022-10-13T17:13:48.572Z,50.53
2022-10-13T17:16:15.373Z,51.53
2022-10-13T17:18:44.231Z,53.13
2022-10-13T17:21:12.026Z,63.50
2022-10-13T17:23:38.353Z,59.92
2022-10-13T17:26:05.962Z,62.60
2022-10-13T17:28:32.982Z,61.35
2022-10-13T17:31:00.765Z,59.25
2022-10-13T17:33:27.797Z,62.08
2022-10-13T17:35:58.129Z,67.78
2022-10-13T17:38:25.563Z,63.35
2022-10-13T17:40:54.927Z,73.53
2022-10-13T17:43:23.636Z,71.45
2022-10-13T17:45:50.081Z,65.40
2022-10-13T17:48:22.116Z,70.75
2022-10-13T17:50:50.368Z,73.43
2022-10-13T17:53:18.454Z,74.88
2022-10-13T17:55:44.737Z,80.88
2022-10-13T17:58:13.581Z,84.57
2022-10-13T18:01:07.626Z,90.38
2022-10-13T18:03:26.233Z,83.57
2022-10-13T18:05:53.509Z,90.22
2022-10-13T18:08:20.039Z,96.32
2022-10-13T18:11:07.002Z,96.93
2022-10-13T18:13:33.524Z,94.05
2022-10-13T18:16:04.515Z,94.15
2022-10-13T18:18:30.861Z,88.78
2022-10-13T18:20:57.185Z,93.63
2022-10-13T18:23:23.453Z,85.63
2022-10-13T18:25:49.999Z,81.75
2022-10-13T18:28:18.941Z,79.85
2022-10-13T18:30:45.270Z,74.35
2022-10-13T18:33:11.570Z,79.57
2022-10-13T18:35:37.838Z,66.70
2022-10-13T18:38:04.153Z,65.57
2022-10-13T18:40:32.441Z,65.05
2022-10-13T18:42:59.229Z,67.22
2022-10-13T18:45:25.693Z,61.38
2022-10-13T18:47:52.114Z,61.75
2022-10-13T18:50:18.395Z,66.30
2022-10-13T18:52:44.662Z,60.90
2022-10-13T18:55:10.948Z,67.90
2022-10-13T18:57:38.030Z,59.03
2022-10-13T19:00:06.607Z,48.25
2022-10-13T19:02:33.383Z,51.15
2022-10-13T19:04:59.651Z,52.35
2022-10-13T19:07:25.921Z,43.58
2022-10-13T19:09:53.314Z,44.50
2022-10-13T19:12:19.607Z,48.53
2022-10-13T19:14:45.858Z,49.30
2022-10-13T19:17:12.171Z,44.80
2022-10-13T19:19:38.978Z,42.78
2022-10-13T19:22:05.322Z,42.15
2022-10-13T19:24:31.639Z,42.15
2022-10-13T19:26:57.909Z,41.50
2022-10-13T19:29:24.242Z,42.50
2022-10-13T19:31:50.571Z,43.22
2022-10-13T19:34:16.889Z,41.20
2022-10-13T19:36:44.558Z,47.20
2022-10-13T19:39:15.842Z,41.60
2022-10-13T19:41:42.784Z,40.85
2022-10-13T19:44:09.080Z,27.13
2022-10-13T19:46:38.661Z,27.17
2022-10-13T19:49:04.953Z,26.35
2022-10-13T19:51:31.504Z,30.73
2022-10-13T19:53:57.790Z,26.05
2022-10-13T19:56:26.062Z,29.10
2022-10-13T19:58:53.070Z,27.70
2022-10-13T20:01:20.317Z,25.00
2022-10-13T20:03:47.132Z,23.83
2022-10-13T20:06:13.783Z,23.13
2022-10-13T20:08:40.082Z,25.77
2022-10-13T20:11:07.319Z,26.50
2022-10-13T20:13:33.833Z,26.10
2022-10-13T20:16:04.311Z,27.85
2022-10-13T20:18:30.644Z,32.65
2022-10-13T20:21:00.832Z,32.20
2022-10-13T20:23:27.095Z,28.50
2022-10-13T20:25:53.445Z,35.58
2022-10-13T20:28:19.743Z,36.33
2022-10-13T20:30:46.029Z,39.58
2022-10-13T20:33:13.407Z,34.03
2022-10-13T20:35:39.708Z,36.80
2022-10-13T20:38:06.005Z,34.13
2022-10-13T20:40:32.240Z,31.70
2022-10-13T20:42:58.985Z,31.73
2022-10-13T20:45:25.668Z,34.05
2022-10-13T20:47:51.915Z,35.80
2022-10-13T20:50:18.181Z,31.55
2022-10-13T20:52:44.441Z,31.90
2022-10-13T20:55:10.801Z,31.58
2022-10-13T20:57:37.128Z,34.78
2022-10-13T21:00:04.547Z,32.10
2022-10-13T21:02:30.867Z,32.13
2022-10-13T21:04:57.350Z,31.85
2022-10-13T21:07:23.898Z,35.65
2022-10-13T21:09:53.803Z,33.55
2022-10-13T21:12:20.614Z,35.03
2022-10-13T21:14:46.865Z,38.10
2022-10-13T21:17:13.127Z,39.85
2022-10-13T21:19:39.384Z,37.22
2022-10-13T21:22:05.666Z,37.22
2022-10-13T21:24:32.029Z,36.53
2022-10-13T21:26:58.304Z,38.40
2022-10-13T21:29:24.683Z,40.38
2022-10-13T21:31:50.928Z,39.42
2022-10-13T21:34:17.185Z,42.15
2022-10-13T21:36:44.804Z,39.95
2022-10-13T21:39:12.941Z,39.60
2022-10-13T21:41:39.279Z,39.60
2022-10-13T21:44:05.549Z,40.03
2022-10-13T21:46:34.929Z,41.00
2022-10-13T21:49:02.625Z,40.30
2022-10-13T21:51:30.382Z,42.60
2022-10-13T21:53:57.881Z,49.08
2022-10-13T21:56:24.677Z,46.72
2022-10-13T21:58:51.090Z,46.53
2022-10-13T22:01:18.412Z,54.90
2022-10-13T22:03:46.898Z,54.95
2022-10-13T22:06:18.802Z,51.70
2022-10-13T22:08:46.928Z,48.60
2022-10-13T22:11:23.312Z,52.03
2022-10-13T22:13:49.662Z,51.50
2022-10-13T22:16:18.651Z,54.85
2022-10-13T22:18:45.149Z,52.40
2022-10-13T22:21:13.300Z,49.78
2022-10-13T22:23:39.829Z,45.65
2022-10-13T22:26:07.452Z,52.00
2022-10-13T22:28:37.267Z,52.55
2022-10-13T22:31:07.824Z,51.28
2022-10-13T22:33:34.879Z,56.75
2022-10-13T22:36:05.330Z,54.58
2022-10-13T22:38:31.698Z,50.85
2022-10-13T22:41:01.174Z,52.22
2022-10-13T22:43:27.435Z,53.38
2022-10-13T22:45:55.713Z,48.88
2022-10-13T22:48:21.980Z,52.22
2022-10-13T22:50:48.333Z,50.05
2022-10-13T22:53:14.625Z,52.92
2022-10-13T22:55:41.607Z,52.70
2022-10-13T22:58:08.490Z,48.63
2022-10-13T23:00:35.794Z,54.83
2022-10-13T23:03:02.603Z,49.20
2022-10-13T23:05:29.021Z,48.50
2022-10-13T23:07:55.350Z,44.55
2022-10-13T23:10:21.657Z,46.78
2022-10-13T23:12:47.950Z,47.20
2022-10-13T23:15:14.298Z,44.75
2022-10-13T23:17:40.573Z,48.95
2022-10-13T23:20:07.251Z,47.58
2022-10-13T23:22:33.521Z,50.13
2022-10-13T23:24:59.803Z,47.53
2022-10-13T23:27:26.070Z,50.90
2022-10-13T23:29:52.341Z,46.88
2022-10-13T23:32:20.955Z,49.83
2022-10-13T23:34:47.249Z,51.53
2022-10-13T23:37:13.886Z,52.08
2022-10-13T23:39:40.167Z,50.70
2022-10-13T23:42:06.503Z,47.70
2022-10-13T23:44:32.765Z,50.03
2022-10-13T23:46:59.025Z,46.50
2022-10-13T23:49:25.322Z,44.80
2022-10-13T23:51:51.938Z,44.95
2022-10-13T23:54:18.442Z,42.95
2022-10-13T23:56:44.750Z,47.20
2022-10-13T23:59:11.025Z,48.40
